Aérodrome :
LOGIN :

S'inscrire | Disclaimer

   EN    FR    IT 

 










Légende :    VFR   VFR Marginal   IFR   IFR Intensif   IFR Très Intensif
Visi : 
Plafond : 
>= 8 km
>= 3000ft
5 à 8 km
1000 à 3000 ft
1500m à 5 km
500 à 1000 ft
800 à 1500m
200 à 500 ft
< 800m
< 200 ft
Symboles :   Orages  Brouillard  Fortes neiges  Fortes précipitations  Vent > 20 kt
SIGMETs :   Divers  Orages  Givrage  Turbulence  Onde Orograph.  Cendres Volcan.






- Altitude de l'aérodrome : 94 ft
- Code IATA : QLT


LIRL - Latina Casale (military)

DERNIER METAR :
  • 121255Z 26003KT 9999 -DZ FEW020 SCT040 16/14 Q0991 RMK OVC MON LIB NC VIS MIN 9999 WIND THR12 00000KT WIND THR30 /////KT BLU

METARs EXPIRÉS :
  • 121155Z 19003KT 9999 -RA FEW020 SCT040 BKN070 16/14 Q0992 RMK OVC MON LIB NC VIS MIN 9999 WIND THR12 19002KT WIND THR30 20002KT BLU
  • 121055Z 21002KT 8000 -RA SCT030 BKN070 16/14 Q0993 RMK OVC MON LIB NC VIS MIN 8000 WIND THR12 23002KT WIND THR30 /////KT BLU

TAF TAF LIRL
Valide du 12 à 12h jusqu'au 12 à 21h UTC


121100Z 1212/1221 11012KT 7000 RA SCT020 BKN060
TEMPO 1212/1218 5000 TSRA FEW018CB BKN020



MET'MAP, la Météo Aéronautique d'un coup d'oeil ! - Copyright ORBIFLY Décembre 2007 - Disclaimer

ORBIFLY MET'MAP TEAM :

Programmation & Développement : Alexandra Zaïnal
Conception & Développement : Baudouin d'Aumeries
Co-Programmation & Développement : Marc-Olivier Méhu
Soutien technique & logistique : Manuel Goepfert

Contact : metmap@orbifly.com




SOURCES & CREDITS :

   NOAA